createdAt,value
2023-02-15T00:00:04.345Z,4.06
2023-02-15T00:01:05.255Z,4.09
2023-02-15T00:02:05.627Z,4.04
2023-02-15T00:03:06.321Z,4.09
2023-02-15T00:04:06.981Z,4.13
2023-02-15T00:05:07.180Z,4.12
2023-02-15T00:06:07.813Z,4.13
2023-02-15T00:07:08.063Z,4.13
2023-02-15T00:08:09.311Z,4.13
2023-02-15T00:09:09.520Z,4.14
2023-02-15T00:10:09.812Z,4.16
2023-02-15T00:11:10.021Z,4.07
2023-02-15T00:12:10.372Z,4.12
2023-02-15T00:13:11.727Z,4.13
2023-02-15T00:14:12.087Z,4.13
2023-02-15T00:15:13.295Z,4.04
2023-02-15T00:16:13.109Z,4.04
2023-02-15T00:17:14.424Z,4.06
2023-02-15T00:18:14.340Z,4.13
2023-02-15T00:19:15.540Z,4
2023-02-15T00:20:15.775Z,3.95
2023-02-15T00:21:16.745Z,3.92
2023-02-15T00:22:17.289Z,3.92
2023-02-15T00:23:17.282Z,3.88
2023-02-15T00:24:18.200Z,3.92
2023-02-15T00:25:18.694Z,3.82
2023-02-15T00:26:19.607Z,3.88
2023-02-15T00:27:19.824Z,3.84
2023-02-15T00:28:20.306Z,3.91
2023-02-15T00:29:21.255Z,3.88
2023-02-15T00:30:21.569Z,3.85
2023-02-15T00:31:22.147Z,3.85
2023-02-15T00:32:21.940Z,3.91
2023-02-15T00:33:23.577Z,3.88
2023-02-15T00:34:23.530Z,3.81
2023-02-15T00:35:24.217Z,3.88
2023-02-15T00:36:25.218Z,3.73
2023-02-15T00:37:25.160Z,3.67
2023-02-15T00:38:26.212Z,3.71
2023-02-15T00:39:27.154Z,3.85
2023-02-15T00:40:28.349Z,3.7
2023-02-15T00:41:28.299Z,3.73
2023-02-15T00:42:28.788Z,3.73
2023-02-15T00:43:29.923Z,3.76
2023-02-15T00:44:30.435Z,3.73
2023-02-15T00:45:30.620Z,3.76
2023-02-15T00:46:31.573Z,3.89
2023-02-15T00:47:31.208Z,3.86
2023-02-15T00:48:32.440Z,3.82
2023-02-15T00:49:32.932Z,3.95
2023-02-15T00:50:33.605Z,3.85
2023-02-15T00:51:34.273Z,3.91
2023-02-15T00:52:34.547Z,4
2023-02-15T00:53:34.912Z,3.96
2023-02-15T00:54:35.120Z,3.89
2023-02-15T00:55:35.749Z,3.92
2023-02-15T00:56:36.377Z,3.92
2023-02-15T00:57:36.726Z,3.91
2023-02-15T00:58:37.935Z,4.03
2023-02-15T00:59:38.426Z,3.96
2023-02-15T01:00:38.339Z,3.92
2023-02-15T01:01:39.773Z,3.96
2023-02-15T01:02:40.268Z,3.91
2023-02-15T01:03:40.864Z,3.95
2023-02-15T01:04:41.319Z,3.91
2023-02-15T01:05:41.576Z,3.95
2023-02-15T01:06:42.106Z,3.95
2023-02-15T01:07:42.369Z,3.91
2023-02-15T01:08:42.891Z,3.91
2023-02-15T01:09:44.123Z,3.81
2023-02-15T01:10:44.612Z,3.71
2023-02-15T01:11:44.967Z,3.68
2023-02-15T01:12:46.162Z,3.68
2023-02-15T01:13:47.485Z,3.7
2023-02-15T01:14:47.145Z,3.68
2023-02-15T01:15:49.567Z,3.68
2023-02-15T01:16:49.549Z,3.63
2023-02-15T01:17:49.504Z,3.66
2023-02-15T01:18:50.869Z,3.58
2023-02-15T01:19:50.493Z,3.56
2023-02-15T01:20:51.701Z,3.59
2023-02-15T01:21:51.954Z,3.56
2023-02-15T01:22:52.484Z,3.5
2023-02-15T01:23:53.488Z,3.52
2023-02-15T01:24:53.698Z,3.5
2023-02-15T01:25:53.913Z,3.5
2023-02-15T01:26:54.568Z,3.43
2023-02-15T01:27:54.888Z,3.45
2023-02-15T01:28:55.132Z,3.45
2023-02-15T01:29:55.459Z,3.5
2023-02-15T01:30:56.153Z,3.27
2023-02-15T01:31:57.200Z,3.27
2023-02-15T01:32:56.766Z,3.27
2023-02-15T01:33:57.863Z,3.29
2023-02-15T01:34:58.146Z,3.31
2023-02-15T01:35:58.427Z,3.16
2023-02-15T01:36:58.496Z,3.16
2023-02-15T01:37:59.048Z,3.08
2023-02-15T01:38:59.985Z,3.08
2023-02-15T01:40:00.619Z,3.13
2023-02-15T01:41:01.142Z,3.09
2023-02-15T01:42:01.762Z,3.12
2023-02-15T01:43:02.395Z,3.12
2023-02-15T01:44:03.401Z,3.12
2023-02-15T01:45:03.607Z,3.12
2023-02-15T01:46:05.005Z,3.11
2023-02-15T01:47:04.660Z,3.11
2023-02-15T01:48:04.592Z,3.16
2023-02-15T01:49:05.809Z,3.13
2023-02-15T01:50:06.069Z,3.08
2023-02-15T01:51:07.422Z,3.09
2023-02-15T01:52:08.100Z,3.05
2023-02-15T01:53:08.324Z,2.94
2023-02-15T01:54:09.662Z,2.95
2023-02-15T01:55:12.273Z,2.85
2023-02-15T01:56:10.275Z,2.83
2023-02-15T01:57:10.482Z,2.69
2023-02-15T01:58:11.533Z,2.75
2023-02-15T01:59:12.024Z,2.68
2023-02-15T02:00:11.688Z,2.65
2023-02-15T02:01:12.900Z,2.72
2023-02-15T02:02:12.892Z,2.76
2023-02-15T02:03:13.323Z,2.76
2023-02-15T02:04:14.338Z,2.7
2023-02-15T02:05:14.940Z,2.64
2023-02-15T02:06:15.194Z,2.68
2023-02-15T02:07:16.068Z,2.7
2023-02-15T02:08:16.647Z,2.68
2023-02-15T02:09:16.591Z,2.61
2023-02-15T02:10:18.224Z,2.7
2023-02-15T02:11:19.170Z,2.73
2023-02-15T02:12:19.565Z,2.7
2023-02-15T02:13:19.791Z,2.65
2023-02-15T02:14:20.257Z,2.76
2023-02-15T02:15:20.294Z,2.73
2023-02-15T02:16:21.979Z,2.76
2023-02-15T02:17:22.044Z,2.65
2023-02-15T02:18:22.941Z,2.7
2023-02-15T02:19:23.588Z,2.7
2023-02-15T02:20:24.504Z,2.69
2023-02-15T02:21:25.730Z,2.77
2023-02-15T02:22:25.692Z,2.73
2023-02-15T02:23:26.252Z,2.64
2023-02-15T02:24:26.261Z,2.7
2023-02-15T02:25:27.478Z,2.62
2023-02-15T02:26:27.390Z,2.76
2023-02-15T02:27:28.304Z,2.69
2023-02-15T02:28:28.789Z,2.7
2023-02-15T02:29:28.984Z,2.7
2023-02-15T02:30:29.924Z,2.77
2023-02-15T02:31:31.073Z,2.7
2023-02-15T02:32:30.606Z,2.73
2023-02-15T02:33:31.231Z,2.7
2023-02-15T02:34:32.260Z,2.73
2023-02-15T02:35:32.199Z,2.75
2023-02-15T02:36:33.437Z,2.7
2023-02-15T02:37:33.999Z,2.73
2023-02-15T02:38:34.648Z,2.75
2023-02-15T02:39:34.546Z,2.72
2023-02-15T02:40:35.176Z,2.7
2023-02-15T02:41:35.403Z,2.73
2023-02-15T02:42:36.320Z,2.76
2023-02-15T02:43:37.236Z,2.76
2023-02-15T02:44:37.530Z,2.72
2023-02-15T02:45:38.036Z,2.7
2023-02-15T02:46:38.458Z,2.64
2023-02-15T02:47:38.740Z,2.7
2023-02-15T02:48:39.253Z,2.79
2023-02-15T02:49:39.749Z,2.69
2023-02-15T02:50:40.030Z,2.58
2023-02-15T02:51:40.253Z,2.69
2023-02-15T02:52:40.909Z,2.68
2023-02-15T02:53:41.277Z,2.54
2023-02-15T02:54:41.914Z,2.54
2023-02-15T02:55:41.806Z,2.57
2023-02-15T02:56:43.041Z,2.43
2023-02-15T02:57:43.230Z,2.44
2023-02-15T02:58:43.454Z,2.47
2023-02-15T02:59:44.103Z,2.47
2023-02-15T03:00:45.027Z,2.37
2023-02-15T03:01:46.203Z,2.4
2023-02-15T03:02:46.279Z,2.36
2023-02-15T03:03:46.390Z,2.37
2023-02-15T03:04:47.685Z,2.34
2023-02-15T03:05:48.640Z,2.36
2023-02-15T03:06:49.192Z,2.32
2023-02-15T03:07:49.446Z,2.37
2023-02-15T03:08:49.699Z,2.4
2023-02-15T03:09:50.367Z,2.34
2023-02-15T03:10:50.996Z,2.34
2023-02-15T03:11:50.928Z,2.32
2023-02-15T03:12:51.838Z,2.33
2023-02-15T03:13:52.757Z,2.3
2023-02-15T03:14:53.805Z,2.33
2023-02-15T03:15:54.396Z,2.21
2023-02-15T03:16:54.442Z,2.19
2023-02-15T03:17:54.923Z,2.26
2023-02-15T03:18:54.567Z,2.28
2023-02-15T03:19:55.481Z,2.22
2023-02-15T03:20:56.422Z,2.19
2023-02-15T03:21:57.077Z,2.23
2023-02-15T03:22:57.324Z,2.21
2023-02-15T03:23:57.570Z,2.22
2023-02-15T03:24:57.598Z,2.21
2023-02-15T03:25:58.994Z,2.22
2023-02-15T03:26:58.842Z,2.34
2023-02-15T03:28:00.099Z,2.25
2023-02-15T03:29:00.738Z,2.3
2023-02-15T03:30:01.872Z,2.25
2023-02-15T03:31:01.846Z,2.34
2023-02-15T03:32:02.252Z,2.21
2023-02-15T03:33:02.897Z,2.21
2023-02-15T03:34:03.540Z,2.22
2023-02-15T03:35:04.601Z,2.26
2023-02-15T03:36:05.305Z,2.21
2023-02-15T03:37:08.703Z,2.18
2023-02-15T03:38:06.373Z,2.22
2023-02-15T03:39:06.658Z,2.28
2023-02-15T03:40:07.848Z,2.18
2023-02-15T03:41:08.776Z,2.23
2023-02-15T03:42:09.430Z,2.23
2023-02-15T03:43:10.641Z,2.15
2023-02-15T03:44:10.859Z,2.07
2023-02-15T03:45:11.837Z,1.98
2023-02-15T03:46:12.885Z,2.07
2023-02-15T03:47:12.928Z,1.98
2023-02-15T03:48:14.154Z,1.95
2023-02-15T03:49:13.803Z,2
2023-02-15T03:50:14.142Z,1.98
2023-02-15T03:51:15.388Z,1.95
2023-02-15T03:52:16.743Z,1.97
2023-02-15T03:53:17.287Z,1.95
2023-02-15T03:54:17.554Z,1.95
2023-02-15T03:55:18.329Z,1.97
2023-02-15T03:56:19.532Z,2.01
2023-02-15T03:57:19.874Z,1.95
2023-02-15T03:58:20.816Z,2.1
2023-02-15T03:59:20.726Z,1.93
2023-02-15T04:00:21.636Z,2.01
2023-02-15T04:01:23.160Z,1.97
2023-02-15T04:02:22.989Z,2.07
2023-02-15T04:03:24.452Z,2.08
2023-02-15T04:04:26.172Z,2.04
2023-02-15T04:05:24.442Z,2.1
2023-02-15T04:06:25.061Z,2.05
2023-02-15T04:07:25.306Z,1.93
2023-02-15T04:08:26.284Z,2.08
2023-02-15T04:09:26.528Z,2.05
2023-02-15T04:10:27.014Z,2.12
2023-02-15T04:11:27.209Z,2.16
2023-02-15T04:12:27.428Z,2.12
2023-02-15T04:13:27.368Z,2.14
2023-02-15T04:14:28.340Z,2.21
2023-02-15T04:15:28.812Z,2.23
2023-02-15T04:16:31.770Z,2.28
2023-02-15T04:17:30.515Z,2.3
2023-02-15T04:18:30.708Z,2.22
2023-02-15T04:19:31.188Z,2.3
2023-02-15T04:20:31.083Z,2.28
2023-02-15T04:21:32.280Z,2.33
2023-02-15T04:22:32.556Z,2.21
2023-02-15T04:23:32.546Z,2.15
2023-02-15T04:24:32.791Z,2.16
2023-02-15T04:25:33.839Z,2.15
2023-02-15T04:26:34.095Z,2.16
2023-02-15T04:27:34.004Z,2.19
2023-02-15T04:28:35.238Z,2.22
2023-02-15T04:29:36.147Z,2.15
2023-02-15T04:30:36.525Z,2.12
2023-02-15T04:31:37.700Z,2.28
2023-02-15T04:32:37.995Z,2.18
2023-02-15T04:33:38.482Z,2.25
2023-02-15T04:34:38.972Z,2.18
2023-02-15T04:35:39.303Z,2.32
2023-02-15T04:36:39.810Z,2.26
2023-02-15T04:37:40.452Z,2.36
2023-02-15T04:38:41.409Z,2.36
2023-02-15T04:39:41.929Z,2.36
2023-02-15T04:40:42.165Z,2.37
2023-02-15T04:41:43.080Z,2.43
2023-02-15T04:42:43.287Z,2.46
2023-02-15T04:43:43.635Z,2.5
2023-02-15T04:44:45.145Z,2.46
2023-02-15T04:45:45.351Z,2.54
2023-02-15T04:46:46.178Z,2.52
2023-02-15T04:47:47.132Z,2.59
2023-02-15T04:48:47.038Z,2.52
2023-02-15T04:49:48.245Z,2.46
2023-02-15T04:50:48.453Z,2.59
2023-02-15T04:51:48.947Z,2.54
2023-02-15T04:52:49.888Z,2.57
2023-02-15T04:53:50.155Z,2.58
2023-02-15T04:54:50.400Z,2.61
2023-02-15T04:55:51.957Z,2.7
2023-02-15T04:56:52.509Z,2.59
2023-02-15T04:57:52.726Z,2.62
2023-02-15T04:58:52.359Z,2.65
2023-02-15T04:59:53.576Z,2.64
2023-02-15T05:00:53.969Z,2.7
2023-02-15T05:01:55.068Z,2.69
2023-02-15T05:02:55.889Z,2.68
2023-02-15T05:03:55.939Z,2.62
2023-02-15T05:04:56.653Z,2.64
2023-02-15T05:05:57.388Z,2.75
2023-02-15T05:06:57.506Z,2.62
2023-02-15T05:07:58.810Z,2.69
2023-02-15T05:08:59.917Z,2.68
2023-02-15T05:10:00.456Z,2.76
2023-02-15T05:11:00.662Z,2.69
2023-02-15T05:12:01.162Z,2.65
2023-02-15T05:13:01.374Z,2.72
2023-02-15T05:14:02.601Z,2.7
2023-02-15T05:15:02.826Z,2.75
2023-02-15T05:16:03.485Z,2.77
2023-02-15T05:17:03.186Z,2.72
2023-02-15T05:18:04.415Z,2.73
2023-02-15T05:19:04.371Z,2.73
2023-02-15T05:20:05.561Z,2.87
2023-02-15T05:21:06.218Z,2.75
2023-02-15T05:22:06.853Z,2.76
2023-02-15T05:23:08.085Z,2.75
2023-02-15T05:24:08.620Z,2.7
2023-02-15T05:25:08.858Z,2.76
2023-02-15T05:26:09.782Z,2.77
2023-02-15T05:27:10.001Z,2.73
2023-02-15T05:28:11.337Z,2.76
2023-02-15T05:29:10.996Z,2.73
2023-02-15T05:30:11.769Z,2.7
2023-02-15T05:31:12.714Z,2.76
2023-02-15T05:32:13.042Z,2.77
2023-02-15T05:33:13.334Z,2.77
2023-02-15T05:34:14.249Z,2.73
2023-02-15T05:35:14.511Z,2.73
2023-02-15T05:36:15.903Z,2.72
2023-02-15T05:37:15.848Z,2.7
2023-02-15T05:38:16.840Z,2.55
2023-02-15T05:39:17.387Z,2.52
2023-02-15T05:40:17.661Z,2.55
2023-02-15T05:41:17.587Z,2.52
2023-02-15T05:42:18.528Z,2.55
2023-02-15T05:43:19.456Z,2.58
2023-02-15T05:44:19.656Z,2.5
2023-02-15T05:45:19.905Z,2.44
2023-02-15T05:46:21.127Z,2.46
2023-02-15T05:47:20.834Z,2.37
2023-02-15T05:48:21.326Z,2.37
2023-02-15T05:49:21.522Z,2.39
2023-02-15T05:50:21.885Z,2.34
2023-02-15T05:51:22.838Z,2.22
2023-02-15T05:52:23.479Z,2.25
2023-02-15T05:53:24.695Z,2.22
2023-02-15T05:54:25.705Z,2.22
2023-02-15T05:55:26.244Z,2.23
2023-02-15T05:56:27.278Z,2.21
2023-02-15T05:57:27.514Z,2.21
2023-02-15T05:58:28.025Z,2.26
2023-02-15T05:59:28.237Z,2.22
2023-02-15T06:00:28.153Z,2.21
2023-02-15T06:01:29.086Z,2.22
2023-02-15T06:02:29.227Z,2.19
2023-02-15T06:03:29.831Z,2.23
2023-02-15T06:04:29.723Z,2.22
2023-02-15T06:05:30.337Z,2.28
2023-02-15T06:06:31.055Z,2.28
2023-02-15T06:07:31.619Z,2.33
2023-02-15T06:08:31.843Z,2.34
2023-02-15T06:09:32.812Z,2.36
2023-02-15T06:10:33.051Z,2.34
2023-02-15T06:11:33.543Z,2.36
2023-02-15T06:12:33.474Z,2.44
2023-02-15T06:13:39.116Z,2.4
2023-02-15T06:14:35.680Z,2.44
2023-02-15T06:15:35.787Z,2.44
2023-02-15T06:16:36.288Z,2.5
2023-02-15T06:17:36.774Z,2.52
2023-02-15T06:18:36.988Z,2.5
2023-02-15T06:19:37.182Z,2.44
2023-02-15T06:20:38.397Z,2.52
2023-02-15T06:21:38.605Z,2.5
2023-02-15T06:22:38.524Z,2.47
2023-02-15T06:23:39.129Z,2.55
2023-02-15T06:24:39.396Z,2.54
2023-02-15T06:25:42.266Z,2.55
2023-02-15T06:26:40.265Z,2.58
2023-02-15T06:27:41.188Z,2.54
2023-02-15T06:28:42.154Z,2.58
2023-02-15T06:29:43.116Z,2.55
2023-02-15T06:30:44.407Z,2.58
2023-02-15T06:31:44.962Z,2.57
2023-02-15T06:32:45.268Z,2.68
2023-02-15T06:33:45.488Z,2.69
2023-02-15T06:34:48.891Z,2.55
2023-02-15T06:35:47.206Z,2.68
2023-02-15T06:36:48.251Z,2.7
2023-02-15T06:37:48.863Z,2.72
2023-02-15T06:38:49.793Z,2.7
2023-02-15T06:39:50.183Z,2.73
2023-02-15T06:40:50.106Z,2.68
2023-02-15T06:41:50.314Z,2.69
2023-02-15T06:42:50.529Z,2.72
2023-02-15T06:43:51.464Z,2.69
2023-02-15T06:44:52.656Z,2.7
2023-02-15T06:45:52.709Z,2.7
2023-02-15T06:46:54.198Z,2.75
2023-02-15T06:47:54.555Z,2.77
2023-02-15T06:48:55.033Z,2.91
2023-02-15T06:49:55.231Z,3.15
2023-02-15T06:50:55.924Z,3.21
2023-02-15T06:51:57.138Z,3.31
2023-02-15T06:52:57.073Z,3.49
2023-02-15T06:53:57.585Z,3.59
2023-02-15T06:54:57.852Z,3.81
2023-02-15T06:55:58.102Z,4.03
2023-02-15T06:56:58.757Z,4.18
2023-02-15T06:57:59.432Z,4.32
2023-02-15T06:58:59.727Z,4.53
2023-02-15T07:00:00.224Z,4.52
2023-02-15T07:01:00.897Z,4.63
2023-02-15T07:02:01.682Z,4.67
2023-02-15T07:03:01.706Z,4.66
2023-02-15T07:04:02.664Z,4.57
2023-02-15T07:05:03.116Z,4.56
2023-02-15T07:06:04.454Z,4.48
2023-02-15T07:07:04.617Z,4.45
2023-02-15T07:08:05.063Z,4.31
2023-02-15T07:09:06.290Z,4.38
2023-02-15T07:10:06.548Z,4.43
2023-02-15T07:11:06.504Z,4.48
2023-02-15T07:12:07.473Z,4.5
2023-02-15T07:13:08.700Z,4.6
2023-02-15T07:14:09.199Z,4.66
2023-02-15T07:15:09.847Z,4.71
2023-02-15T07:16:10.584Z,4.71
2023-02-15T07:17:36.209Z,4.68
2023-02-15T07:18:11.381Z,4.75
2023-02-15T07:19:12.062Z,4.82
2023-02-15T07:20:12.991Z,4.82
2023-02-15T07:21:13.915Z,4.76
2023-02-15T07:22:14.557Z,4.68
2023-02-15T07:23:15.761Z,4.74
2023-02-15T07:24:15.755Z,4.74
2023-02-15T07:25:16.047Z,4.82
2023-02-15T07:26:16.304Z,4.78
2023-02-15T07:27:19.636Z,4.78
2023-02-15T07:28:17.559Z,4.87
2023-02-15T07:29:18.094Z,4.9
2023-02-15T07:30:18.579Z,4.98
2023-02-15T07:31:19.504Z,5.2
2023-02-15T07:32:20.168Z,5.37
2023-02-15T07:33:20.412Z,5.41
2023-02-15T07:34:20.954Z,5.44
2023-02-15T07:35:21.148Z,5.92
2023-02-15T07:36:21.365Z,6.25
2023-02-15T07:37:22.716Z,6.74
2023-02-15T07:38:23.202Z,7.18
2023-02-15T07:39:23.439Z,7.59
2023-02-15T07:40:24.023Z,7.9
2023-02-15T07:41:24.612Z,7.93
2023-02-15T07:42:24.544Z,8.09
2023-02-15T07:43:25.760Z,8.03
2023-02-15T07:44:26.734Z,7.95
2023-02-15T07:45:26.960Z,8.06
2023-02-15T07:46:28.069Z,8.32
2023-02-15T07:47:28.172Z,8.74
2023-02-15T07:48:30.967Z,9.13
2023-02-15T07:49:30.179Z,9.55
2023-02-15T07:50:30.767Z,10.1
2023-02-15T07:51:31.458Z,10.61
2023-02-15T07:52:32.397Z,10.89
2023-02-15T07:53:33.056Z,11.34
2023-02-15T07:54:34.119Z,11.41
2023-02-15T07:55:34.718Z,11.53
2023-02-15T07:56:37.571Z,11.53
2023-02-15T07:57:36.264Z,11.44
2023-02-15T07:58:36.800Z,11.37
2023-02-15T07:59:37.527Z,11.35
2023-02-15T08:00:37.747Z,11.37
2023-02-15T08:01:38.702Z,11.44
2023-02-15T08:02:39.574Z,11.76
2023-02-15T08:03:40.317Z,11.86
2023-02-15T08:04:40.832Z,12.08
2023-02-15T08:05:41.358Z,12.12
2023-02-15T08:06:41.876Z,12.18
2023-02-15T08:07:42.327Z,12.39
2023-02-15T08:08:42.989Z,12.55
2023-02-15T08:09:43.973Z,12.68
2023-02-15T08:10:44.964Z,12.86
2023-02-15T08:11:45.254Z,12.78
2023-02-15T08:12:46.494Z,12.66
2023-02-15T08:13:46.775Z,12.66
2023-02-15T08:14:47.060Z,12.76
2023-02-15T08:15:47.576Z,12.81
2023-02-15T08:16:48.293Z,13.08
2023-02-15T08:17:48.412Z,13.27
2023-02-15T08:18:48.903Z,13.49
2023-02-15T08:19:48.844Z,13.78
2023-02-15T08:20:50.072Z,14.04
2023-02-15T08:21:50.298Z,14.26
2023-02-15T08:22:51.251Z,14.44
2023-02-15T08:23:51.547Z,14.61
2023-02-15T08:24:52.881Z,14.55
2023-02-15T08:25:53.159Z,14.56
2023-02-15T08:26:53.664Z,14.67
2023-02-15T08:27:54.158Z,14.71
2023-02-15T08:28:54.864Z,14.9
2023-02-15T08:29:56.292Z,14.62
2023-02-15T08:30:56.517Z,14.19
2023-02-15T08:31:57.882Z,13.82
2023-02-15T08:32:58.451Z,13.61
2023-02-15T08:33:59.406Z,13.57
2023-02-15T08:35:00.097Z,13.58
2023-02-15T08:36:01.045Z,13.42
2023-02-15T08:37:02.284Z,13.31
2023-02-15T08:38:02.655Z,12.87
2023-02-15T08:39:03.189Z,12.54
2023-02-15T08:40:03.730Z,12.17
2023-02-15T08:41:04.345Z,11.88
2023-02-15T08:42:04.455Z,11.8
2023-02-15T08:43:05.686Z,11.8
2023-02-15T08:44:05.651Z,11.91
2023-02-15T08:45:06.608Z,12.03
2023-02-15T08:46:07.804Z,12.26
2023-02-15T08:47:08.194Z,12.51
2023-02-15T08:48:08.497Z,12.76
2023-02-15T08:49:08.739Z,12.9
2023-02-15T08:50:09.284Z,12.9
2023-02-15T08:51:10.066Z,13.08
2023-02-15T08:52:10.296Z,13.16
2023-02-15T08:53:10.391Z,13.33
2023-02-15T08:54:10.974Z,13.78
2023-02-15T08:55:11.512Z,14.18
2023-02-15T08:56:12.107Z,14.36
2023-02-15T08:57:12.164Z,14.37
2023-02-15T08:58:13.079Z,14.23
2023-02-15T08:59:14.303Z,14.25
2023-02-15T09:00:14.609Z,14.19
2023-02-15T09:01:16.043Z,14.11
2023-02-15T09:02:16.949Z,13.94
2023-02-15T09:03:17.102Z,13.91
2023-02-15T09:04:17.356Z,14.03
2023-02-15T09:05:18.328Z,14.23
2023-02-15T09:06:18.273Z,14.43
2023-02-15T09:07:19.789Z,14.36
2023-02-15T09:08:20.134Z,14.03
2023-02-15T09:09:20.407Z,13.87
2023-02-15T09:10:20.669Z,13.76
2023-02-15T09:11:22.052Z,13.55
2023-02-15T09:12:22.636Z,13.33
2023-02-15T09:13:22.873Z,12.75
2023-02-15T09:14:23.425Z,12.45
2023-02-15T09:15:23.654Z,12.08
2023-02-15T09:16:23.932Z,11.76
2023-02-15T09:17:24.469Z,11.48
2023-02-15T09:18:24.551Z,11.33
2023-02-15T09:19:26.094Z,11.23
2023-02-15T09:20:26.570Z,11.19
2023-02-15T09:21:27.085Z,11.49
2023-02-15T09:22:27.358Z,11.88
2023-02-15T09:23:32.765Z,12.29
2023-02-15T09:24:28.085Z,12.83
2023-02-15T09:25:28.636Z,13.12
2023-02-15T09:26:28.917Z,13.13
2023-02-15T09:27:29.509Z,13.26
2023-02-15T09:28:30.008Z,13.27
2023-02-15T09:29:30.988Z,13.71
2023-02-15T09:30:31.972Z,14.31
2023-02-15T09:31:33.075Z,14.77
2023-02-15T09:32:33.400Z,15.15
2023-02-15T09:33:33.912Z,15.65
2023-02-15T09:34:35.661Z,16
2023-02-15T09:35:35.635Z,16.4
2023-02-15T09:36:35.605Z,16.72
2023-02-15T09:37:36.593Z,17.13
2023-02-15T09:38:36.814Z,17.24
2023-02-15T09:39:37.342Z,17.41
2023-02-15T09:40:37.857Z,17.49
2023-02-15T09:41:38.440Z,17.86
2023-02-15T09:42:39.145Z,18.02
2023-02-15T09:43:39.837Z,17.95
2023-02-15T09:44:39.776Z,17.88
2023-02-15T09:45:40.119Z,17.47
2023-02-15T09:46:40.147Z,17.02
2023-02-15T09:47:40.693Z,16.68
2023-02-15T09:48:40.920Z,16.55
2023-02-15T09:49:41.469Z,16.22
2023-02-15T09:50:42.860Z,16.28
2023-02-15T09:51:41.859Z,16.36
2023-02-15T09:52:42.284Z,16.58
2023-02-15T09:53:43.233Z,16.61
2023-02-15T09:54:43.291Z,16.66
2023-02-15T09:55:44.553Z,16.94
2023-02-15T09:56:45.117Z,17.1
2023-02-15T09:57:45.458Z,17.34
2023-02-15T09:58:46.117Z,17.6
2023-02-15T09:59:46.083Z,17.98
2023-02-15T10:00:47.055Z,18.27
2023-02-15T10:01:47.069Z,18.58
2023-02-15T10:02:47.618Z,18.74
2023-02-15T10:03:48.065Z,18.91
2023-02-15T10:04:48.817Z,19
2023-02-15T10:05:48.548Z,18.97
2023-02-15T10:06:49.265Z,19
2023-02-15T10:07:49.475Z,18.88
2023-02-15T10:08:50.524Z,18.76
2023-02-15T10:09:51.084Z,18.76
2023-02-15T10:10:51.372Z,18.79
2023-02-15T10:11:51.539Z,18.76
2023-02-15T10:12:51.968Z,18.48
2023-02-15T10:13:53.219Z,18.31
2023-02-15T10:14:53.866Z,18.05
2023-02-15T10:15:54.086Z,17.82
2023-02-15T10:16:54.630Z,17.75
2023-02-15T10:17:56.042Z,17.59
2023-02-15T10:18:56.251Z,17.35
2023-02-15T10:19:56.779Z,17.31
2023-02-15T10:20:57.010Z,17.39
2023-02-15T10:21:57.753Z,17.47
2023-02-15T10:22:57.773Z,17.73
2023-02-15T10:23:59.025Z,18.03
2023-02-15T10:24:59.272Z,18.27
2023-02-15T10:26:00.919Z,18.7
2023-02-15T10:27:00.627Z,19.11
2023-02-15T10:28:00.886Z,19.49
2023-02-15T10:29:01.405Z,19.72
2023-02-15T10:30:03.082Z,19.97
2023-02-15T10:31:04.276Z,20.19
2023-02-15T10:32:04.003Z,20.26
2023-02-15T10:33:04.620Z,20.26
2023-02-15T10:34:04.574Z,20.4
2023-02-15T10:35:05.102Z,20.56
2023-02-15T10:36:05.066Z,20.73
2023-02-15T10:37:06.480Z,20.92
2023-02-15T10:38:06.997Z,21.01
2023-02-15T10:39:07.589Z,21.17
2023-02-15T10:40:08.523Z,21.28
2023-02-15T10:41:09.703Z,21.32
2023-02-15T10:42:09.026Z,21.25
2023-02-15T10:43:09.334Z,21.19
2023-02-15T10:44:10.672Z,21.25
2023-02-15T10:45:11.342Z,21.25
2023-02-15T10:46:12.676Z,21.29
2023-02-15T10:47:13.554Z,21.45
2023-02-15T10:48:13.813Z,21.58
2023-02-15T10:49:13.958Z,21.74
2023-02-15T10:50:15.199Z,21.78
2023-02-15T10:51:15.624Z,21.81
2023-02-15T10:52:16.132Z,21.81
2023-02-15T10:53:16.837Z,21.99
2023-02-15T10:54:17.827Z,22.15
2023-02-15T10:55:18.342Z,22.21
2023-02-15T10:56:19.318Z,22.33
2023-02-15T10:57:19.894Z,22.33
2023-02-15T10:58:20.589Z,22.25
2023-02-15T10:59:21.262Z,22.15
2023-02-15T11:00:22.237Z,22.01
2023-02-15T11:01:22.626Z,22.07
2023-02-15T11:02:22.909Z,22.16
2023-02-15T11:03:23.705Z,22
2023-02-15T11:04:24.389Z,21.89
2023-02-15T11:05:25.713Z,21.66
2023-02-15T11:06:26.005Z,21.41
2023-02-15T11:07:26.007Z,21.22
2023-02-15T11:08:27.441Z,21.14
2023-02-15T11:09:28.228Z,21.1
2023-02-15T11:10:28.779Z,21.29
2023-02-15T11:11:29.187Z,21.58
2023-02-15T11:12:29.752Z,21.7
2023-02-15T11:13:30.445Z,21.77
2023-02-15T11:14:30.820Z,21.84
2023-02-15T11:15:32.005Z,21.96
2023-02-15T11:16:32.587Z,21.78
2023-02-15T11:17:32.964Z,21.72
2023-02-15T11:18:34.257Z,21.53
2023-02-15T11:19:34.931Z,21.38
2023-02-15T11:20:35.615Z,21.2
2023-02-15T11:21:36.554Z,21.08
2023-02-15T11:22:36.902Z,20.98
2023-02-15T11:23:37.411Z,20.98
2023-02-15T11:24:37.792Z,20.8
2023-02-15T11:25:38.766Z,20.74
2023-02-15T11:26:39.801Z,20.63
2023-02-15T11:27:41.477Z,20.46
2023-02-15T11:28:41.857Z,20.26
2023-02-15T11:29:42.181Z,20.18
2023-02-15T11:30:42.884Z,20.08
2023-02-15T11:31:43.534Z,20.03
2023-02-15T11:32:44.563Z,20.15
2023-02-15T11:33:45.099Z,20.03
2023-02-15T11:34:45.032Z,20.04
2023-02-15T11:35:45.274Z,20.21
2023-02-15T11:36:45.491Z,20.19
2023-02-15T11:37:46.784Z,20.08
2023-02-15T11:38:47.315Z,20.07
2023-02-15T11:39:48.113Z,20.11
2023-02-15T11:40:48.377Z,20.1
2023-02-15T11:41:49.626Z,20.17
2023-02-15T11:42:50.092Z,20.17
2023-02-15T11:43:50.697Z,20.07
2023-02-15T11:44:50.759Z,19.96
2023-02-15T11:45:51.746Z,19.94
2023-02-15T11:46:53.058Z,19.92
2023-02-15T11:47:53.318Z,19.93
2023-02-15T11:48:53.274Z,19.93
2023-02-15T11:49:54.317Z,19.84
2023-02-15T11:50:54.847Z,19.6
2023-02-15T11:51:55.320Z,19.55
2023-02-15T11:52:55.543Z,19.63
2023-02-15T11:53:55.781Z,19.75
2023-02-15T11:54:56.016Z,19.99
2023-02-15T11:55:56.268Z,20.14
2023-02-15T11:56:57.534Z,20.22
2023-02-15T11:57:58.320Z,20.36
2023-02-15T11:58:58.903Z,20.12
2023-02-15T11:59:59.703Z,19.87
2023-02-15T12:01:01.668Z,19.74
2023-02-15T12:02:02.558Z,19.75
2023-02-15T12:03:02.071Z,19.85
2023-02-15T12:04:02.588Z,19.92
2023-02-15T12:05:03.047Z,19.99
2023-02-15T12:06:03.796Z,19.97
2023-02-15T12:07:07.903Z,20.12
2023-02-15T12:08:05.663Z,20.02
2023-02-15T12:09:06.617Z,20.03
2023-02-15T12:10:07.223Z,19.97
2023-02-15T12:11:07.508Z,19.89
2023-02-15T12:12:08.230Z,19.89
2023-02-15T12:13:09.526Z,19.84
2023-02-15T12:14:10.122Z,19.71
2023-02-15T12:15:10.109Z,19.66
2023-02-15T12:16:12.289Z,19.66
2023-02-15T12:17:11.503Z,19.74
2023-02-15T12:18:12.016Z,19.78
2023-02-15T12:19:11.952Z,19.72
2023-02-15T12:20:12.164Z,19.87
2023-02-15T12:21:12.407Z,19.89
2023-02-15T12:22:15.626Z,19.93
2023-02-15T12:23:13.586Z,20.04
2023-02-15T12:24:13.532Z,20.12
2023-02-15T12:25:14.799Z,20
2023-02-15T12:26:14.748Z,20
2023-02-15T12:27:16.044Z,19.9
2023-02-15T12:28:16.495Z,19.77
2023-02-15T12:29:16.840Z,19.52
2023-02-15T12:30:17.501Z,19.52
2023-02-15T12:31:18.306Z,19.34
2023-02-15T12:32:19.279Z,19.47
2023-02-15T12:33:18.873Z,19.37
2023-02-15T12:34:20.121Z,19.45
2023-02-15T12:35:21.049Z,19.35
2023-02-15T12:36:21.016Z,19.32
2023-02-15T12:37:22.236Z,19.32
2023-02-15T12:38:22.762Z,19.34
2023-02-15T12:39:23.452Z,19.38
2023-02-15T12:40:23.523Z,19.49
2023-02-15T12:41:23.676Z,19.45
2023-02-15T12:42:24.946Z,19.44
2023-02-15T12:43:25.225Z,19.56
2023-02-15T12:44:25.871Z,19.57
2023-02-15T12:45:26.414Z,19.63
2023-02-15T12:46:26.655Z,19.64
2023-02-15T12:47:29.994Z,19.63
2023-02-15T12:48:27.224Z,19.67
2023-02-15T12:49:27.575Z,19.7
2023-02-15T12:50:35.316Z,19.66
2023-02-15T12:51:28.637Z,19.64
2023-02-15T12:52:28.877Z,19.77
2023-02-15T12:53:29.090Z,19.78
2023-02-15T12:54:29.355Z,19.89
2023-02-15T12:55:30.052Z,19.9
2023-02-15T12:56:31.066Z,19.92
2023-02-15T12:57:31.700Z,20.1
2023-02-15T12:58:32.110Z,20.15
2023-02-15T12:59:32.691Z,20
2023-02-15T13:00:33.716Z,20.03
2023-02-15T13:01:34.134Z,19.87
2023-02-15T13:02:34.157Z,19.74
2023-02-15T13:03:34.700Z,19.89
2023-02-15T13:04:34.957Z,19.82
2023-02-15T13:05:35.203Z,19.74
2023-02-15T13:06:36.204Z,19.79
2023-02-15T13:07:37.424Z,19.63
2023-02-15T13:08:37.062Z,19.48
2023-02-15T13:09:37.716Z,19.41
2023-02-15T13:10:38.763Z,19.41
2023-02-15T13:11:39.292Z,19.48
2023-02-15T13:12:40.261Z,19.45
2023-02-15T13:13:40.969Z,19.32
2023-02-15T13:14:40.954Z,19.3
2023-02-15T13:15:42.204Z,19.3
2023-02-15T13:16:43.751Z,19.32
2023-02-15T13:17:44.476Z,19.38
2023-02-15T13:18:44.696Z,19.37